Weather History for Baraboo, WI

Change the Weather History Date:

Tuesday, November 19, 2013

  Actual Average Record
Temperature  
Mean Temperature 28 °F -  
Max Temperature 39 °F 44 °F 66 °F (1975)
Min Temperature 18 °F 24 °F 6 °F (1951)
Degree Days  
Heating Degree Days 36    
Moisture  
Dew Point 22 °F    
Average Humidity 75    
Maximum Humidity 93    
Minimum Humidity 52    
Precipitation  
Precipitation 0.00 in - - ()
Sea Level Pressure  
Sea Level Pressure 30.26 in    
Wind  
Wind Speed 4 mph (SSE)    
Max Wind Speed 20 mph    
Max Gust Speed 23 mph    
Visibility 10 miles    
Events      
Averages and records for this station are not official NWS values.
T = Trace of Precipitation, MM = Missing Value Source: NWS Daily Summary

Daily Weather History Graph

Daily Weather History Graph

Search for Another Location

Airport:

Trip Planner

Search our weather history database for the weather conditions in past years. The results will help you decide how hot, cold, wet, or windy it might be!

Date:

Astronomy

Nov. 19, 2013 Rise Set
Actual Time 6:58 AM CST 4:30 PM CST
Civil Twilight 6:27 AM CST 5:01 PM CST
Nautical Twilight 5:52 AM CST 5:36 PM CST
Astronomical Twilight 5:18 AM CST 6:10 PM CST
Moon 6:21 PM CST (11/19) 8:38 AM CST (11/19)
Length of Visible Light 10h 34m
Length of Day
9h 32m
Waning Gibbous, 96% of the Moon is Illuminated
Nov 19
Waning Gibbous
Nov 25
Last Quarter
Dec 2
New
Dec 9
First Quarter
Dec 17
Full

Hourly Weather History & Observations

Time (CST) Temp. Windchill Dew Point Humidity Pressure Visibility Wind Dir Wind Speed Gust Speed Precip Events Conditions
12:15 AM 23.5 °F 17.6 °F 18.9 °F 82% 30.25 in 10.0 mi WSW 4.6 mph - N/A   Clear
12:35 AM 23.0 °F 18.4 °F 19.0 °F 85% 30.26 in 10.0 mi West 3.5 mph - N/A   Clear
12:55 AM 23.0 °F - 18.7 °F 84% 30.25 in 10.0 mi Calm Calm - N/A   Clear
1:15 AM 20.8 °F - 16.5 °F 83% 30.26 in 10.0 mi Calm Calm - N/A   Clear
1:35 AM 20.7 °F - 17.6 °F 88% 30.27 in 10.0 mi Calm Calm - N/A   Clear
1:55 AM 19.9 °F - 17.1 °F 89% 30.27 in 10.0 mi Calm Calm - N/A   Clear
2:15 AM 20.1 °F - 18.0 °F 91% 30.28 in 10.0 mi Calm Calm - N/A   Clear
2:35 AM 20.1 °F - 18.0 °F 91% 30.28 in 10.0 mi Calm Calm - N/A   Clear
2:55 AM 19.2 °F - 16.7 °F 90% 30.27 in 10.0 mi Calm Calm - N/A   Clear
3:15 AM 20.1 °F - 18.1 °F 92% 30.28 in 10.0 mi Calm Calm - N/A   Clear
3:35 AM 18.9 °F - 16.5 °F 91% 30.29 in 10.0 mi Calm Calm - N/A   Clear
3:55 AM 18.9 °F - 16.7 °F 91% 30.29 in 10.0 mi Calm Calm - N/A   Clear
4:15 AM 19.6 °F - 17.4 °F 91% 30.30 in 10.0 mi Calm Calm - N/A   Clear
4:35 AM 20.1 °F - 18.0 °F 91% 30.31 in 10.0 mi Calm Calm - N/A   Clear
4:55 AM 19.8 °F - 17.4 °F 91% 30.31 in 10.0 mi Calm Calm - N/A   Clear
5:15 AM 18.5 °F - 16.3 °F 91% 30.31 in 10.0 mi Calm Calm - N/A   Clear
5:35 AM 18.9 °F - 16.9 °F 92% 30.31 in 10.0 mi Calm Calm - N/A   Clear
5:55 AM 18.3 °F - 16.2 °F 91% 30.31 in 10.0 mi Calm Calm - N/A   Clear
6:15 AM 18.5 °F - 16.7 °F 93% 30.31 in 10.0 mi Calm Calm - N/A   Clear
6:35 AM 18.9 °F - 16.9 °F 92% 30.31 in 10.0 mi Calm Calm - N/A   Clear
6:55 AM 18.3 °F - 16.3 °F 92% 30.32 in 10.0 mi Calm Calm - N/A   Clear
7:15 AM 18.9 °F 13.7 °F 17.1 °F 93% 30.32 in 10.0 mi South 3.5 mph - N/A   Clear
7:35 AM 20.3 °F - 18.5 °F 93% 30.32 in 10.0 mi Calm Calm - N/A   Clear
7:55 AM 22.3 °F - 20.3 °F 92% 30.32 in 10.0 mi Calm Calm - N/A   Clear
8:15 AM 23.7 °F - 21.4 °F 91% 30.32 in 10.0 mi Calm Calm - N/A   Clear
8:35 AM 25.2 °F - 21.9 °F 87% 30.32 in 10.0 mi Calm Calm - N/A   Clear
8:55 AM 27.0 °F 23.0 °F 21.6 °F 80% 30.32 in 10.0 mi SSE 3.5 mph - N/A   Clear
9:15 AM 28.4 °F 21.2 °F 21.4 °F 75% 30.32 in 10.0 mi ESE 6.9 mph - N/A   Clear
9:35 AM 29.5 °F 23.4 °F 22.1 °F 74% 30.32 in 10.0 mi SE 5.8 mph - N/A   Clear
9:55 AM 30.4 °F 24.5 °F 21.9 °F 71% 30.32 in 10.0 mi SSE 5.8 mph - N/A   Clear
10:15 AM 31.1 °F 25.4 °F 21.0 °F 66% 30.32 in 10.0 mi SSE 5.8 mph - N/A   Clear
10:35 AM 32.0 °F 25.6 °F 22.3 °F 67% 30.32 in 10.0 mi South 6.9 mph - N/A   Clear
10:55 AM 32.4 °F 26.9 °F 22.1 °F 66% 30.31 in 10.0 mi South 5.8 mph - N/A   Clear
11:15 AM 33.8 °F 27.7 °F 21.6 °F 61% 30.30 in 10.0 mi South 6.9 mph - N/A   Clear
11:35 AM 34.0 °F 28.0 °F 21.7 °F 61% 30.29 in 10.0 mi SSE 6.9 mph - N/A   Clear
11:55 AM 34.7 °F 29.6 °F 22.5 °F 61% 30.29 in 10.0 mi South 5.8 mph - N/A   Clear
12:15 PM 35.6 °F 31.7 °F 23.0 °F 60% 30.28 in 10.0 mi SSE 4.6 mph - N/A   Clear
12:35 PM 36.0 °F 31.1 °F 22.5 °F 58% 30.27 in 10.0 mi SSE 5.8 mph - N/A   Clear
12:55 PM 37.0 °F 31.0 °F 22.3 °F 55% 30.27 in 10.0 mi SE 8.1 mph - N/A   Clear
1:15 PM 37.8 °F 31.8 °F 22.5 °F 54% 30.25 in 10.0 mi SSE 8.1 mph - N/A   Clear
1:35 PM 38.5 °F 32.1 °F 22.8 °F 53% 30.25 in 10.0 mi SE 9.2 mph - N/A   Clear
1:55 PM 38.7 °F 32.4 °F 23.0 °F 53% 30.24 in 10.0 mi South 9.2 mph - N/A   Clear
2:15 PM 38.5 °F 32.1 °F 22.3 °F 52% 30.24 in 10.0 mi South 9.2 mph - N/A   Clear
2:35 PM 38.3 °F 32.5 °F 23.0 °F 54% 30.23 in 10.0 mi SE 8.1 mph - N/A   Clear
2:55 PM 39.2 °F 33.6 °F 23.9 °F 54% 30.22 in 10.0 mi SE 8.1 mph - N/A   Clear
3:15 PM 38.7 °F 31.4 °F 23.9 °F 55% 30.22 in 10.0 mi SE 11.5 mph - N/A   Clear
3:35 PM 37.9 °F 31.5 °F 23.7 °F 57% 30.22 in 10.0 mi SE 9.2 mph - N/A   Clear
3:55 PM 37.2 °F 29.6 °F 23.7 °F 58% 30.22 in 10.0 mi SSE 11.5 mph - N/A   Clear
4:15 PM 35.6 °F 29.2 °F 23.9 °F 62% 30.22 in 10.0 mi SSE 8.1 mph - N/A   Clear
4:35 PM 34.5 °F 27.3 °F 23.9 °F 65% 30.21 in 10.0 mi SE 9.2 mph - N/A   Clear
4:55 PM 34.0 °F 28.0 °F 23.9 °F 67% 30.21 in 10.0 mi SE 6.9 mph - N/A   Clear
5:15 PM 33.8 °F 29.6 °F 23.7 °F 67% 30.21 in 10.0 mi SE 4.6 mph - N/A   Clear
5:35 PM 33.6 °F 26.8 °F 24.3 °F 69% 30.21 in 10.0 mi SSE 8.1 mph - N/A   Clear
5:55 PM 34.0 °F 26.0 °F 24.4 °F 68% 30.21 in 10.0 mi SSE 10.4 mph - N/A   Clear
6:15 PM 34.2 °F 25.7 °F 24.4 °F 68% 30.20 in 10.0 mi SE 11.5 mph - N/A   Clear
6:35 PM 34.2 °F 27.5 °F 24.3 °F 67% 30.20 in 10.0 mi SE 8.1 mph - N/A   Clear
6:55 PM 33.8 °F 27.0 °F 24.4 °F 69% 30.20 in 10.0 mi SSE 8.1 mph - N/A   Clear
7:15 PM 34.2 °F 24.4 °F 24.8 °F 69% 30.20 in 10.0 mi SSE 15.0 mph 18.4 mph N/A   Clear
7:35 PM 33.8 °F 23.9 °F 24.8 °F 70% 30.20 in 10.0 mi South 15.0 mph - N/A   Clear
7:55 PM 34.2 °F 23.6 °F 24.8 °F 69% 30.19 in 10.0 mi South 17.3 mph 20.7 mph N/A   Clear
8:15 PM 33.8 °F 23.9 °F 25.0 °F 70% 30.20 in 10.0 mi South 15.0 mph 19.6 mph N/A   Clear
8:35 PM 33.8 °F 23.9 °F 25.2 °F 71% 30.19 in 10.0 mi South 15.0 mph - N/A   Clear
8:55 PM 33.8 °F 25.3 °F 25.3 °F 71% 30.19 in 10.0 mi South 11.5 mph 16.1 mph N/A   Clear
9:35 PM 34.2 °F 25.7 °F 26.1 °F 72% 30.19 in 10.0 mi South 11.5 mph - N/A   Clear
9:55 PM 34.2 °F 25.7 °F 26.6 °F 74% 30.18 in 10.0 mi South 11.5 mph - N/A   Clear
10:15 PM 34.0 °F 26.6 °F 26.4 °F 74% 30.18 in 10.0 mi South 9.2 mph - N/A   Clear
10:35 PM 34.7 °F 26.9 °F 26.8 °F 73% 30.18 in 10.0 mi South 10.4 mph 17.3 mph N/A   Clear
10:55 PM 34.9 °F 27.1 °F 27.1 °F 73% 30.18 in 10.0 mi South 10.4 mph - N/A   Clear
11:15 PM 34.9 °F 24.6 °F 27.3 °F 74% 30.17 in 10.0 mi South 17.3 mph 23.0 mph N/A   Clear
11:35 PM 34.7 °F 23.7 °F 27.5 °F 75% 30.17 in 10.0 mi South 19.6 mph - N/A   Clear
11:55 PM 34.7 °F 24.3 °F 27.5 °F 75% 30.17 in 10.0 mi South 17.3 mph 23.0 mph N/A   Clear